sensor_id;sensor_type;location;lat;lon;timestamp;temperature;humidity
52044;DHT22;38053;53.100;6.078;2023-08-21T00:00:07;15.70;99.90
52044;DHT22;38053;53.100;6.078;2023-08-21T00:02:32;15.70;99.90
52044;DHT22;38053;53.100;6.078;2023-08-21T00:04:58;15.70;99.90
52044;DHT22;38053;53.100;6.078;2023-08-21T00:07:24;15.60;99.90
52044;DHT22;38053;53.100;6.078;2023-08-21T00:09:49;15.60;99.90
52044;DHT22;38053;53.100;6.078;2023-08-21T00:12:15;15.50;99.90
52044;DHT22;38053;53.100;6.078;2023-08-21T00:14:41;15.50;99.90
52044;DHT22;38053;53.100;6.078;2023-08-21T00:17:07;15.40;99.90
52044;DHT22;38053;53.100;6.078;2023-08-21T00:19:33;15.50;99.90
52044;DHT22;38053;53.100;6.078;2023-08-21T00:22:00;15.40;99.90
52044;DHT22;38053;53.100;6.078;2023-08-21T00:24:26;15.40;99.90
52044;DHT22;38053;53.100;6.078;2023-08-21T00:26:51;15.40;99.90
52044;DHT22;38053;53.100;6.078;2023-08-21T00:29:20;15.30;99.90
52044;DHT22;38053;53.100;6.078;2023-08-21T00:31:46;15.30;99.90
52044;DHT22;38053;53.100;6.078;2023-08-21T00:34:12;15.30;99.90
52044;DHT22;38053;53.100;6.078;2023-08-21T00:36:37;15.20;99.90
52044;DHT22;38053;53.100;6.078;2023-08-21T00:39:03;15.20;99.90
52044;DHT22;38053;53.100;6.078;2023-08-21T00:41:29;15.20;99.90
52044;DHT22;38053;53.100;6.078;2023-08-21T00:43:55;15.10;99.90
52044;DHT22;38053;53.100;6.078;2023-08-21T00:46:20;15.10;99.90
52044;DHT22;38053;53.100;6.078;2023-08-21T00:48:47;15.10;99.90
52044;DHT22;38053;53.100;6.078;2023-08-21T00:51:15;15.10;99.90
52044;DHT22;38053;53.100;6.078;2023-08-21T00:53:41;15.10;99.90
52044;DHT22;38053;53.100;6.078;2023-08-21T00:56:08;15.00;99.90
52044;DHT22;38053;53.100;6.078;2023-08-21T00:58:34;15.00;99.90
52044;DHT22;38053;53.100;6.078;2023-08-21T01:00:59;15.00;99.90
52044;DHT22;38053;53.100;6.078;2023-08-21T01:03:25;15.00;99.90
52044;DHT22;38053;53.100;6.078;2023-08-21T01:05:51;14.90;99.90
52044;DHT22;38053;53.100;6.078;2023-08-21T01:11:18;14.90;99.90
52044;DHT22;38053;53.100;6.078;2023-08-21T01:14:08;14.90;99.90
52044;DHT22;38053;53.100;6.078;2023-08-21T01:16:37;14.90;99.90
52044;DHT22;38053;53.100;6.078;2023-08-21T01:19:04;14.80;99.90
52044;DHT22;38053;53.100;6.078;2023-08-21T01:21:32;14.80;99.90
52044;DHT22;38053;53.100;6.078;2023-08-21T01:23:59;14.80;99.90
52044;DHT22;38053;53.100;6.078;2023-08-21T01:26:25;14.70;99.90
52044;DHT22;38053;53.100;6.078;2023-08-21T01:28:51;14.70;99.90
52044;DHT22;38053;53.100;6.078;2023-08-21T01:31:29;14.70;99.90
52044;DHT22;38053;53.100;6.078;2023-08-21T01:34:00;14.70;99.90
52044;DHT22;38053;53.100;6.078;2023-08-21T01:36:27;14.70;99.90
52044;DHT22;38053;53.100;6.078;2023-08-21T01:38:53;14.70;99.90
52044;DHT22;38053;53.100;6.078;2023-08-21T01:41:19;14.70;99.90
52044;DHT22;38053;53.100;6.078;2023-08-21T01:43:45;14.60;99.90
52044;DHT22;38053;53.100;6.078;2023-08-21T01:46:12;14.60;99.90
52044;DHT22;38053;53.100;6.078;2023-08-21T01:48:37;14.60;99.90
52044;DHT22;38053;53.100;6.078;2023-08-21T01:51:03;14.50;99.90
52044;DHT22;38053;53.100;6.078;2023-08-21T01:53:29;14.50;99.90
52044;DHT22;38053;53.100;6.078;2023-08-21T01:55:54;14.50;99.90
52044;DHT22;38053;53.100;6.078;2023-08-21T01:58:20;14.50;99.90
52044;DHT22;38053;53.100;6.078;2023-08-21T02:00:46;14.50;99.90
52044;DHT22;38053;53.100;6.078;2023-08-21T02:03:12;14.40;99.90
52044;DHT22;38053;53.100;6.078;2023-08-21T02:05:39;14.40;99.90
52044;DHT22;38053;53.100;6.078;2023-08-21T02:08:11;14.40;99.90
52044;DHT22;38053;53.100;6.078;2023-08-21T02:10:36;14.40;99.90
52044;DHT22;38053;53.100;6.078;2023-08-21T02:13:02;14.40;99.90
52044;DHT22;38053;53.100;6.078;2023-08-21T02:15:28;14.40;99.90
52044;DHT22;38053;53.100;6.078;2023-08-21T02:17:54;14.40;99.90
52044;DHT22;38053;53.100;6.078;2023-08-21T02:20:20;14.30;99.90
52044;DHT22;38053;53.100;6.078;2023-08-21T02:22:45;14.40;99.90
52044;DHT22;38053;53.100;6.078;2023-08-21T02:25:11;14.30;99.90
52044;DHT22;38053;53.100;6.078;2023-08-21T02:27:37;14.30;99.90
52044;DHT22;38053;53.100;6.078;2023-08-21T02:30:03;14.30;99.90
52044;DHT22;38053;53.100;6.078;2023-08-21T02:32:28;14.30;99.90
52044;DHT22;38053;53.100;6.078;2023-08-21T02:34:54;14.30;99.90
52044;DHT22;38053;53.100;6.078;2023-08-21T02:37:20;14.20;99.90
52044;DHT22;38053;53.100;6.078;2023-08-21T02:39:45;14.20;99.90
52044;DHT22;38053;53.100;6.078;2023-08-21T02:42:11;14.20;99.90
52044;DHT22;38053;53.100;6.078;2023-08-21T02:44:37;14.20;99.90
52044;DHT22;38053;53.100;6.078;2023-08-21T02:47:02;14.10;99.90
52044;DHT22;38053;53.100;6.078;2023-08-21T02:49:28;14.10;99.90
52044;DHT22;38053;53.100;6.078;2023-08-21T02:51:54;14.10;99.90
52044;DHT22;38053;53.100;6.078;2023-08-21T02:54:19;14.00;99.90
52044;DHT22;38053;53.100;6.078;2023-08-21T02:56:45;14.00;99.90
52044;DHT22;38053;53.100;6.078;2023-08-21T02:59:11;14.00;99.90
52044;DHT22;38053;53.100;6.078;2023-08-21T03:01:36;14.00;99.90
52044;DHT22;38053;53.100;6.078;2023-08-21T03:04:02;14.00;99.90
52044;DHT22;38053;53.100;6.078;2023-08-21T03:06:28;13.90;99.90
52044;DHT22;38053;53.100;6.078;2023-08-21T03:08:54;13.90;99.90
52044;DHT22;38053;53.100;6.078;2023-08-21T03:11:19;13.80;99.90
52044;DHT22;38053;53.100;6.078;2023-08-21T03:13:45;13.80;99.90
52044;DHT22;38053;53.100;6.078;2023-08-21T03:16:11;13.80;99.90
52044;DHT22;38053;53.100;6.078;2023-08-21T03:18:57;13.80;99.90
52044;DHT22;38053;53.100;6.078;2023-08-21T03:21:23;13.70;99.90
52044;DHT22;38053;53.100;6.078;2023-08-21T03:23:57;13.70;99.90
52044;DHT22;38053;53.100;6.078;2023-08-21T03:26:23;13.70;99.90
52044;DHT22;38053;53.100;6.078;2023-08-21T03:28:49;13.70;99.90
52044;DHT22;38053;53.100;6.078;2023-08-21T03:31:15;13.70;99.90
52044;DHT22;38053;53.100;6.078;2023-08-21T03:33:44;13.70;99.90
52044;DHT22;38053;53.100;6.078;2023-08-21T03:36:10;13.60;99.90
52044;DHT22;38053;53.100;6.078;2023-08-21T03:38:35;13.60;99.90
52044;DHT22;38053;53.100;6.078;2023-08-21T03:41:02;13.60;99.90
52044;DHT22;38053;53.100;6.078;2023-08-21T03:43:27;13.50;99.90
52044;DHT22;38053;53.100;6.078;2023-08-21T03:45:53;13.50;99.90
52044;DHT22;38053;53.100;6.078;2023-08-21T03:48:19;13.50;99.90
52044;DHT22;38053;53.100;6.078;2023-08-21T03:50:44;13.50;99.90
52044;DHT22;38053;53.100;6.078;2023-08-21T03:53:10;13.50;99.90
52044;DHT22;38053;53.100;6.078;2023-08-21T03:55:36;13.50;99.90
52044;DHT22;38053;53.100;6.078;2023-08-21T03:58:01;13.50;99.90
52044;DHT22;38053;53.100;6.078;2023-08-21T04:00:27;13.60;99.90
52044;DHT22;38053;53.100;6.078;2023-08-21T04:02:53;13.60;99.90
52044;DHT22;38053;53.100;6.078;2023-08-21T04:05:18;13.50;99.90
52044;DHT22;38053;53.100;6.078;2023-08-21T04:07:44;13.50;99.90
52044;DHT22;38053;53.100;6.078;2023-08-21T04:10:10;13.50;99.90
52044;DHT22;38053;53.100;6.078;2023-08-21T04:12:36;13.50;99.90
52044;DHT22;38053;53.100;6.078;2023-08-21T04:15:01;13.50;99.90
52044;DHT22;38053;53.100;6.078;2023-08-21T04:17:27;13.50;99.90
52044;DHT22;38053;53.100;6.078;2023-08-21T04:19:53;13.50;99.90
52044;DHT22;38053;53.100;6.078;2023-08-21T04:22:18;13.50;99.90
52044;DHT22;38053;53.100;6.078;2023-08-21T04:24:44;13.50;99.90
52044;DHT22;38053;53.100;6.078;2023-08-21T04:27:10;13.50;99.90
52044;DHT22;38053;53.100;6.078;2023-08-21T04:29:36;13.50;99.90
52044;DHT22;38053;53.100;6.078;2023-08-21T04:32:02;13.60;99.90
52044;DHT22;38053;53.100;6.078;2023-08-21T04:34:29;13.50;99.90
52044;DHT22;38053;53.100;6.078;2023-08-21T04:36:54;13.50;99.90
52044;DHT22;38053;53.100;6.078;2023-08-21T04:39:20;13.50;99.90
52044;DHT22;38053;53.100;6.078;2023-08-21T04:41:46;13.60;99.90
52044;DHT22;38053;53.100;6.078;2023-08-21T04:44:11;13.60;99.90
52044;DHT22;38053;53.100;6.078;2023-08-21T04:46:37;13.60;99.90
52044;DHT22;38053;53.100;6.078;2023-08-21T04:49:03;13.60;99.90
52044;DHT22;38053;53.100;6.078;2023-08-21T04:51:29;13.60;99.90
52044;DHT22;38053;53.100;6.078;2023-08-21T04:53:57;13.60;99.90
52044;DHT22;38053;53.100;6.078;2023-08-21T04:56:25;13.60;99.90
52044;DHT22;38053;53.100;6.078;2023-08-21T04:58:52;13.60;99.90
52044;DHT22;38053;53.100;6.078;2023-08-21T05:01:17;13.60;99.90
52044;DHT22;38053;53.100;6.078;2023-08-21T05:03:43;13.70;99.90
52044;DHT22;38053;53.100;6.078;2023-08-21T05:06:09;13.60;99.90
52044;DHT22;38053;53.100;6.078;2023-08-21T05:08:35;13.70;99.90
52044;DHT22;38053;53.100;6.078;2023-08-21T05:11:01;13.70;99.90
52044;DHT22;38053;53.100;6.078;2023-08-21T05:13:27;13.70;99.90
52044;DHT22;38053;53.100;6.078;2023-08-21T05:15:54;13.70;99.90
52044;DHT22;38053;53.100;6.078;2023-08-21T05:18:20;13.70;99.90
52044;DHT22;38053;53.100;6.078;2023-08-21T05:20:47;13.80;99.90
52044;DHT22;38053;53.100;6.078;2023-08-21T05:23:14;13.80;99.90
52044;DHT22;38053;53.100;6.078;2023-08-21T05:25:39;13.90;99.90
52044;DHT22;38053;53.100;6.078;2023-08-21T05:28:06;13.90;99.90
52044;DHT22;38053;53.100;6.078;2023-08-21T05:30:32;13.90;99.90
52044;DHT22;38053;53.100;6.078;2023-08-21T05:32:58;13.90;99.90
52044;DHT22;38053;53.100;6.078;2023-08-21T05:35:24;14.00;99.90
52044;DHT22;38053;53.100;6.078;2023-08-21T05:37:49;14.00;99.90
52044;DHT22;38053;53.100;6.078;2023-08-21T05:40:15;14.00;99.90
52044;DHT22;38053;53.100;6.078;2023-08-21T05:42:41;14.00;99.90
52044;DHT22;38053;53.100;6.078;2023-08-21T05:45:07;14.10;99.90
52044;DHT22;38053;53.100;6.078;2023-08-21T05:47:33;14.10;99.90
52044;DHT22;38053;53.100;6.078;2023-08-21T05:49:58;14.20;99.90
52044;DHT22;38053;53.100;6.078;2023-08-21T05:52:24;14.20;99.90
52044;DHT22;38053;53.100;6.078;2023-08-21T05:54:50;14.30;99.90
52044;DHT22;38053;53.100;6.078;2023-08-21T05:57:16;14.30;99.90
52044;DHT22;38053;53.100;6.078;2023-08-21T05:59:45;14.30;99.90
52044;DHT22;38053;53.100;6.078;2023-08-21T06:02:13;14.40;99.90
52044;DHT22;38053;53.100;6.078;2023-08-21T06:04:43;14.50;99.90
52044;DHT22;38053;53.100;6.078;2023-08-21T06:07:09;14.60;99.90
52044;DHT22;38053;53.100;6.078;2023-08-21T06:09:35;14.70;99.90
52044;DHT22;38053;53.100;6.078;2023-08-21T06:12:03;14.70;99.90
52044;DHT22;38053;53.100;6.078;2023-08-21T06:14:29;14.80;99.90
52044;DHT22;38053;53.100;6.078;2023-08-21T06:16:57;14.90;99.90
52044;DHT22;38053;53.100;6.078;2023-08-21T06:19:23;14.90;99.90
52044;DHT22;38053;53.100;6.078;2023-08-21T06:21:48;15.00;99.90
52044;DHT22;38053;53.100;6.078;2023-08-21T06:24:14;15.00;99.90
52044;DHT22;38053;53.100;6.078;2023-08-21T06:26:40;15.10;99.90
52044;DHT22;38053;53.100;6.078;2023-08-21T06:29:06;15.20;99.90
52044;DHT22;38053;53.100;6.078;2023-08-21T06:31:31;15.30;99.90
52044;DHT22;38053;53.100;6.078;2023-08-21T06:33:57;15.30;99.90
52044;DHT22;38053;53.100;6.078;2023-08-21T06:36:23;15.40;99.90
52044;DHT22;38053;53.100;6.078;2023-08-21T06:38:48;15.50;99.90
52044;DHT22;38053;53.100;6.078;2023-08-21T06:41:14;15.60;99.90
52044;DHT22;38053;53.100;6.078;2023-08-21T06:43:40;15.70;99.90
52044;DHT22;38053;53.100;6.078;2023-08-21T06:46:07;15.80;99.90
52044;DHT22;38053;53.100;6.078;2023-08-21T06:48:33;15.80;99.90
52044;DHT22;38053;53.100;6.078;2023-08-21T06:50:59;16.00;99.90
52044;DHT22;38053;53.100;6.078;2023-08-21T06:53:25;16.00;99.90
52044;DHT22;38053;53.100;6.078;2023-08-21T06:55:51;16.10;99.90
52044;DHT22;38053;53.100;6.078;2023-08-21T06:58:16;16.20;99.90
52044;DHT22;38053;53.100;6.078;2023-08-21T07:00:42;16.30;99.90
52044;DHT22;38053;53.100;6.078;2023-08-21T07:03:08;16.40;99.90
52044;DHT22;38053;53.100;6.078;2023-08-21T07:05:34;16.50;99.90
52044;DHT22;38053;53.100;6.078;2023-08-21T07:08:00;16.60;99.90
52044;DHT22;38053;53.100;6.078;2023-08-21T07:10:26;16.70;99.90
52044;DHT22;38053;53.100;6.078;2023-08-21T07:12:54;16.90;99.90
52044;DHT22;38053;53.100;6.078;2023-08-21T07:15:20;17.00;99.90
52044;DHT22;38053;53.100;6.078;2023-08-21T07:17:47;17.00;99.90
52044;DHT22;38053;53.100;6.078;2023-08-21T07:20:13;17.10;99.90
52044;DHT22;38053;53.100;6.078;2023-08-21T07:22:38;17.20;99.90
52044;DHT22;38053;53.100;6.078;2023-08-21T07:25:04;17.40;99.90
52044;DHT22;38053;53.100;6.078;2023-08-21T07:27:31;17.50;99.90
52044;DHT22;38053;53.100;6.078;2023-08-21T07:29:57;17.60;99.90
52044;DHT22;38053;53.100;6.078;2023-08-21T07:32:22;17.70;99.90
52044;DHT22;38053;53.100;6.078;2023-08-21T07:34:52;17.80;99.90
52044;DHT22;38053;53.100;6.078;2023-08-21T07:37:20;17.80;99.90
52044;DHT22;38053;53.100;6.078;2023-08-21T07:39:45;17.90;99.90
52044;DHT22;38053;53.100;6.078;2023-08-21T07:42:11;18.00;99.90
52044;DHT22;38053;53.100;6.078;2023-08-21T07:44:39;18.10;99.90
52044;DHT22;38053;53.100;6.078;2023-08-21T07:47:05;18.20;99.90
52044;DHT22;38053;53.100;6.078;2023-08-21T07:49:32;18.30;99.90
52044;DHT22;38053;53.100;6.078;2023-08-21T07:51:58;18.40;99.90
52044;DHT22;38053;53.100;6.078;2023-08-21T07:54:23;18.50;99.90
52044;DHT22;38053;53.100;6.078;2023-08-21T07:56:50;18.60;99.90
52044;DHT22;38053;53.100;6.078;2023-08-21T07:59:16;18.70;99.90
52044;DHT22;38053;53.100;6.078;2023-08-21T08:01:42;18.80;99.90
52044;DHT22;38053;53.100;6.078;2023-08-21T08:04:08;18.80;99.90
52044;DHT22;38053;53.100;6.078;2023-08-21T08:06:34;18.90;99.90
52044;DHT22;38053;53.100;6.078;2023-08-21T08:09:00;19.00;99.90
52044;DHT22;38053;53.100;6.078;2023-08-21T08:11:25;19.10;99.90
52044;DHT22;38053;53.100;6.078;2023-08-21T08:13:51;19.20;99.90
52044;DHT22;38053;53.100;6.078;2023-08-21T08:16:17;19.30;99.90
52044;DHT22;38053;53.100;6.078;2023-08-21T08:18:45;19.30;99.90
52044;DHT22;38053;53.100;6.078;2023-08-21T08:21:11;19.50;99.90
52044;DHT22;38053;53.100;6.078;2023-08-21T08:23:37;19.60;99.90
52044;DHT22;38053;53.100;6.078;2023-08-21T08:26:02;19.70;99.90
52044;DHT22;38053;53.100;6.078;2023-08-21T08:28:28;19.70;99.90
52044;DHT22;38053;53.100;6.078;2023-08-21T08:30:54;19.90;99.90
52044;DHT22;38053;53.100;6.078;2023-08-21T08:33:20;20.00;99.90
52044;DHT22;38053;53.100;6.078;2023-08-21T08:35:45;20.10;99.90
52044;DHT22;38053;53.100;6.078;2023-08-21T08:38:11;20.10;99.90
52044;DHT22;38053;53.100;6.078;2023-08-21T08:40:44;20.20;99.90
52044;DHT22;38053;53.100;6.078;2023-08-21T08:43:11;20.30;99.90
52044;DHT22;38053;53.100;6.078;2023-08-21T08:45:37;20.40;99.90
52044;DHT22;38053;53.100;6.078;2023-08-21T08:48:04;20.50;99.90
52044;DHT22;38053;53.100;6.078;2023-08-21T08:50:31;20.60;99.90
52044;DHT22;38053;53.100;6.078;2023-08-21T08:52:58;20.60;99.90
52044;DHT22;38053;53.100;6.078;2023-08-21T08:55:25;20.70;99.90
52044;DHT22;38053;53.100;6.078;2023-08-21T08:57:55;20.80;99.90
52044;DHT22;38053;53.100;6.078;2023-08-21T09:00:21;20.80;99.90
52044;DHT22;38053;53.100;6.078;2023-08-21T09:02:48;20.90;99.90
52044;DHT22;38053;53.100;6.078;2023-08-21T09:05:13;21.00;99.90
52044;DHT22;38053;53.100;6.078;2023-08-21T09:07:39;21.10;99.90
52044;DHT22;38053;53.100;6.078;2023-08-21T09:10:13;21.20;99.90
52044;DHT22;38053;53.100;6.078;2023-08-21T09:12:39;21.20;99.90
52044;DHT22;38053;53.100;6.078;2023-08-21T09:15:08;21.30;99.90
52044;DHT22;38053;53.100;6.078;2023-08-21T09:17:37;21.40;99.90
52044;DHT22;38053;53.100;6.078;2023-08-21T09:20:04;21.50;99.90
52044;DHT22;38053;53.100;6.078;2023-08-21T09:22:30;21.60;99.90
52044;DHT22;38053;53.100;6.078;2023-08-21T09:25:04;21.70;99.90
52044;DHT22;38053;53.100;6.078;2023-08-21T09:27:35;21.90;99.90
52044;DHT22;38053;53.100;6.078;2023-08-21T09:30:04;21.90;99.90
52044;DHT22;38053;53.100;6.078;2023-08-21T09:32:30;22.00;99.90
52044;DHT22;38053;53.100;6.078;2023-08-21T09:34:56;22.10;99.90
52044;DHT22;38053;53.100;6.078;2023-08-21T09:37:28;22.30;99.90
52044;DHT22;38053;53.100;6.078;2023-08-21T09:40:00;22.40;99.90
52044;DHT22;38053;53.100;6.078;2023-08-21T09:42:26;22.50;99.90
52044;DHT22;38053;53.100;6.078;2023-08-21T09:44:52;22.60;99.90
52044;DHT22;38053;53.100;6.078;2023-08-21T09:47:18;22.70;99.90
52044;DHT22;38053;53.100;6.078;2023-08-21T09:49:45;22.80;99.90
52044;DHT22;38053;53.100;6.078;2023-08-21T09:52:11;22.80;99.90
52044;DHT22;38053;53.100;6.078;2023-08-21T09:54:42;22.90;99.90
52044;DHT22;38053;53.100;6.078;2023-08-21T09:57:07;23.10;99.90
52044;DHT22;38053;53.100;6.078;2023-08-21T09:59:35;23.10;99.90
52044;DHT22;38053;53.100;6.078;2023-08-21T10:02:04;23.20;99.90
52044;DHT22;38053;53.100;6.078;2023-08-21T10:04:32;23.40;99.90
52044;DHT22;38053;53.100;6.078;2023-08-21T10:07:01;23.50;99.90
52044;DHT22;38053;53.100;6.078;2023-08-21T10:09:29;23.60;99.90
52044;DHT22;38053;53.100;6.078;2023-08-21T10:11:56;23.80;99.90
52044;DHT22;38053;53.100;6.078;2023-08-21T10:14:23;23.90;99.90
52044;DHT22;38053;53.100;6.078;2023-08-21T10:16:54;24.10;99.90
52044;DHT22;38053;53.100;6.078;2023-08-21T10:19:20;24.20;99.90
52044;DHT22;38053;53.100;6.078;2023-08-21T10:21:49;24.30;99.90
52044;DHT22;38053;53.100;6.078;2023-08-21T10:24:28;24.20;99.90
52044;DHT22;38053;53.100;6.078;2023-08-21T10:26:59;24.00;99.90
52044;DHT22;38053;53.100;6.078;2023-08-21T10:29:26;24.00;99.90
52044;DHT22;38053;53.100;6.078;2023-08-21T10:32:03;24.00;99.90
52044;DHT22;38053;53.100;6.078;2023-08-21T10:34:37;24.20;99.90
52044;DHT22;38053;53.100;6.078;2023-08-21T10:37:04;24.40;99.90
52044;DHT22;38053;53.100;6.078;2023-08-21T10:39:31;24.50;99.90
52044;DHT22;38053;53.100;6.078;2023-08-21T10:42:03;24.70;99.90
52044;DHT22;38053;53.100;6.078;2023-08-21T10:47:31;24.90;99.90
52044;DHT22;38053;53.100;6.078;2023-08-21T10:50:00;25.00;99.90
52044;DHT22;38053;53.100;6.078;2023-08-21T10:52:30;25.10;99.90
52044;DHT22;38053;53.100;6.078;2023-08-21T10:54:58;25.20;99.90
52044;DHT22;38053;53.100;6.078;2023-08-21T10:57:25;25.30;99.90
52044;DHT22;38053;53.100;6.078;2023-08-21T11:02:20;25.50;99.90
52044;DHT22;38053;53.100;6.078;2023-08-21T11:04:46;25.60;99.90
52044;DHT22;38053;53.100;6.078;2023-08-21T11:07:12;25.70;99.90
52044;DHT22;38053;53.100;6.078;2023-08-21T11:09:43;25.90;99.90
52044;DHT22;38053;53.100;6.078;2023-08-21T11:12:12;26.00;99.90
52044;DHT22;38053;53.100;6.078;2023-08-21T11:14:39;26.10;99.90
52044;DHT22;38053;53.100;6.078;2023-08-21T11:17:06;26.20;99.90
52044;DHT22;38053;53.100;6.078;2023-08-21T11:19:33;26.10;99.90
52044;DHT22;38053;53.100;6.078;2023-08-21T11:22:00;26.10;99.90
52044;DHT22;38053;53.100;6.078;2023-08-21T11:24:50;26.20;99.90
52044;DHT22;38053;53.100;6.078;2023-08-21T11:27:19;26.10;99.90
52044;DHT22;38053;53.100;6.078;2023-08-21T11:29:50;26.10;99.90
52044;DHT22;38053;53.100;6.078;2023-08-21T11:32:22;26.20;99.90
52044;DHT22;38053;53.100;6.078;2023-08-21T11:34:53;26.20;99.90
52044;DHT22;38053;53.100;6.078;2023-08-21T11:37:21;26.30;99.90
52044;DHT22;38053;53.100;6.078;2023-08-21T11:39:55;26.30;99.90
52044;DHT22;38053;53.100;6.078;2023-08-21T11:42:29;26.40;99.90
52044;DHT22;38053;53.100;6.078;2023-08-21T11:44:55;26.50;99.90
52044;DHT22;38053;53.100;6.078;2023-08-21T11:47:22;26.80;99.90
52044;DHT22;38053;53.100;6.078;2023-08-21T11:49:49;27.10;99.90
52044;DHT22;38053;53.100;6.078;2023-08-21T11:52:22;27.30;99.90
52044;DHT22;38053;53.100;6.078;2023-08-21T11:54:53;27.50;99.90
52044;DHT22;38053;53.100;6.078;2023-08-21T11:57:19;27.60;99.90
52044;DHT22;38053;53.100;6.078;2023-08-21T11:59:52;27.60;99.90
52044;DHT22;38053;53.100;6.078;2023-08-21T12:02:22;27.50;99.90
52044;DHT22;38053;53.100;6.078;2023-08-21T12:05:13;27.70;99.90
52044;DHT22;38053;53.100;6.078;2023-08-21T12:07:39;27.80;99.90
52044;DHT22;38053;53.100;6.078;2023-08-21T12:10:05;27.70;99.90
52044;DHT22;38053;53.100;6.078;2023-08-21T12:12:31;27.60;99.90
52044;DHT22;38053;53.100;6.078;2023-08-21T12:14:57;27.80;99.90
52044;DHT22;38053;53.100;6.078;2023-08-21T12:17:22;28.00;99.90
52044;DHT22;38053;53.100;6.078;2023-08-21T12:19:48;28.10;99.90
52044;DHT22;38053;53.100;6.078;2023-08-21T12:22:17;28.10;99.90
52044;DHT22;38053;53.100;6.078;2023-08-21T12:24:42;28.30;99.90
52044;DHT22;38053;53.100;6.078;2023-08-21T12:27:08;28.60;99.90
52044;DHT22;38053;53.100;6.078;2023-08-21T12:29:34;28.80;99.90
52044;DHT22;38053;53.100;6.078;2023-08-21T12:32:00;29.10;99.90
52044;DHT22;38053;53.100;6.078;2023-08-21T12:34:26;29.30;99.90
52044;DHT22;38053;53.100;6.078;2023-08-21T12:36:52;29.50;99.90
52044;DHT22;38053;53.100;6.078;2023-08-21T12:39:19;29.30;99.90
52044;DHT22;38053;53.100;6.078;2023-08-21T12:41:45;29.10;99.90
52044;DHT22;38053;53.100;6.078;2023-08-21T12:44:12;29.20;99.90
52044;DHT22;38053;53.100;6.078;2023-08-21T12:46:37;29.40;99.60
52044;DHT22;38053;53.100;6.078;2023-08-21T12:49:03;29.60;98.60
52044;DHT22;38053;53.100;6.078;2023-08-21T12:51:30;29.40;98.60
52044;DHT22;38053;53.100;6.078;2023-08-21T12:53:55;29.20;98.80
52044;DHT22;38053;53.100;6.078;2023-08-21T12:56:21;29.20;98.40
52044;DHT22;38053;53.100;6.078;2023-08-21T12:58:47;29.30;98.80
52044;DHT22;38053;53.100;6.078;2023-08-21T13:01:13;29.20;98.70
52044;DHT22;38053;53.100;6.078;2023-08-21T13:03:46;29.30;98.20
52044;DHT22;38053;53.100;6.078;2023-08-21T13:06:13;29.50;97.80
52044;DHT22;38053;53.100;6.078;2023-08-21T13:08:39;29.60;97.50
52044;DHT22;38053;53.100;6.078;2023-08-21T13:11:05;29.80;97.40
52044;DHT22;38053;53.100;6.078;2023-08-21T13:13:31;29.90;97.10
52044;DHT22;38053;53.100;6.078;2023-08-21T13:15:57;29.80;97.30
52044;DHT22;38053;53.100;6.078;2023-08-21T13:18:24;29.50;96.50
52044;DHT22;38053;53.100;6.078;2023-08-21T13:20:49;28.90;97.10
52044;DHT22;38053;53.100;6.078;2023-08-21T13:23:15;28.30;98.10
52044;DHT22;38053;53.100;6.078;2023-08-21T13:25:41;27.90;98.30
52044;DHT22;38053;53.100;6.078;2023-08-21T13:28:07;27.90;98.50
52044;DHT22;38053;53.100;6.078;2023-08-21T13:30:32;28.20;98.50
52044;DHT22;38053;53.100;6.078;2023-08-21T13:32:58;28.10;98.10
52044;DHT22;38053;53.100;6.078;2023-08-21T13:35:24;28.00;98.10
52044;DHT22;38053;53.100;6.078;2023-08-21T13:37:50;27.90;98.30
52044;DHT22;38053;53.100;6.078;2023-08-21T13:40:16;27.60;98.90
52044;DHT22;38053;53.100;6.078;2023-08-21T13:42:46;27.40;99.30
52044;DHT22;38053;53.100;6.078;2023-08-21T13:45:16;27.30;99.10
52044;DHT22;38053;53.100;6.078;2023-08-21T13:47:43;27.10;99.50
52044;DHT22;38053;53.100;6.078;2023-08-21T13:50:10;26.80;99.90
52044;DHT22;38053;53.100;6.078;2023-08-21T13:52:36;26.90;99.90
52044;DHT22;38053;53.100;6.078;2023-08-21T13:55:04;27.20;99.90
52044;DHT22;38053;53.100;6.078;2023-08-21T13:57:30;27.60;99.90
52044;DHT22;38053;53.100;6.078;2023-08-21T13:59:57;27.90;99.90
52044;DHT22;38053;53.100;6.078;2023-08-21T14:02:23;27.70;99.90
52044;DHT22;38053;53.100;6.078;2023-08-21T14:04:49;27.60;99.90
52044;DHT22;38053;53.100;6.078;2023-08-21T14:07:15;27.70;99.90
52044;DHT22;38053;53.100;6.078;2023-08-21T14:09:41;27.50;99.90
52044;DHT22;38053;53.100;6.078;2023-08-21T14:12:07;27.50;99.90
52044;DHT22;38053;53.100;6.078;2023-08-21T14:14:34;27.40;99.90
52044;DHT22;38053;53.100;6.078;2023-08-21T14:17:00;27.20;99.90
52044;DHT22;38053;53.100;6.078;2023-08-21T14:19:25;27.00;99.90
52044;DHT22;38053;53.100;6.078;2023-08-21T14:21:51;26.90;99.90
52044;DHT22;38053;53.100;6.078;2023-08-21T14:24:17;26.80;99.90
52044;DHT22;38053;53.100;6.078;2023-08-21T14:26:43;26.80;99.90
52044;DHT22;38053;53.100;6.078;2023-08-21T14:29:08;26.60;99.90
52044;DHT22;38053;53.100;6.078;2023-08-21T14:31:34;26.40;99.90
52044;DHT22;38053;53.100;6.078;2023-08-21T14:34:00;26.20;99.90
52044;DHT22;38053;53.100;6.078;2023-08-21T14:36:25;26.00;99.90
52044;DHT22;38053;53.100;6.078;2023-08-21T14:38:51;25.90;99.90
52044;DHT22;38053;53.100;6.078;2023-08-21T14:41:17;25.90;99.90
52044;DHT22;38053;53.100;6.078;2023-08-21T14:43:44;26.10;99.90
52044;DHT22;38053;53.100;6.078;2023-08-21T14:46:09;26.30;99.90
52044;DHT22;38053;53.100;6.078;2023-08-21T14:48:37;26.20;99.90
52044;DHT22;38053;53.100;6.078;2023-08-21T14:51:04;25.90;99.90
52044;DHT22;38053;53.100;6.078;2023-08-21T14:53:30;25.80;99.90
52044;DHT22;38053;53.100;6.078;2023-08-21T14:55:56;25.70;99.90
52044;DHT22;38053;53.100;6.078;2023-08-21T14:58:22;25.60;99.90
52044;DHT22;38053;53.100;6.078;2023-08-21T15:00:49;25.50;99.90
52044;DHT22;38053;53.100;6.078;2023-08-21T15:03:15;25.50;99.90
52044;DHT22;38053;53.100;6.078;2023-08-21T15:05:41;25.70;99.90
52044;DHT22;38053;53.100;6.078;2023-08-21T15:08:07;25.90;99.90
52044;DHT22;38053;53.100;6.078;2023-08-21T15:10:33;26.00;99.90
52044;DHT22;38053;53.100;6.078;2023-08-21T15:12:59;26.10;99.90
52044;DHT22;38053;53.100;6.078;2023-08-21T15:15:28;26.00;99.90
52044;DHT22;38053;53.100;6.078;2023-08-21T15:17:54;26.00;99.90
52044;DHT22;38053;53.100;6.078;2023-08-21T15:20:23;26.00;99.90
52044;DHT22;38053;53.100;6.078;2023-08-21T15:22:48;26.00;99.90
52044;DHT22;38053;53.100;6.078;2023-08-21T15:25:16;26.00;99.90
52044;DHT22;38053;53.100;6.078;2023-08-21T15:27:42;25.90;99.90
52044;DHT22;38053;53.100;6.078;2023-08-21T15:30:09;25.80;99.90
52044;DHT22;38053;53.100;6.078;2023-08-21T15:32:38;25.70;99.90
52044;DHT22;38053;53.100;6.078;2023-08-21T15:35:11;25.60;99.90